Time;durP1;ratioP1;P1;durP2;ratioP2;P2;SDS_P1;SDS_P2;PMS_P1;PMS_P2;Temp;Humidity;BMP_temperature;BMP_pressure;BME280_temperature;BME280_humidity;BME280_pressure;Samples;Min_cycle;Max_cycle;Signal;HPM_P1;HPM_P2
2022/12/28 00:00:02;;;;;;;12.90;4.35;;;6.00;99.90;;;;;;5010923;28;20056;-82
2022/12/28 00:02:28;;;;;;;13.43;4.20;;;5.30;99.90;;;;;;5010247;28;20045;-82
2022/12/28 00:04:54;;;;;;;15.35;4.60;;;5.90;99.90;;;;;;5011371;28;20598;-83
2022/12/28 00:07:20;;;;;;;11.02;4.78;;;5.70;99.90;;;;;;5011066;28;20409;-83
2022/12/28 00:09:45;;;;;;;12.88;4.55;;;5.80;99.90;;;;;;5010164;28;20033;-83
2022/12/28 00:12:11;;;;;;;16.13;4.80;;;6.20;99.90;;;;;;5010593;28;20131;-82
2022/12/28 00:14:36;;;;;;;17.27;4.65;;;6.10;99.90;;;;;;5011006;28;20042;-83
2022/12/28 00:17:02;;;;;;;16.90;4.78;;;5.20;99.90;;;;;;5009811;28;20149;-82
2022/12/28 00:19:28;;;;;;;15.48;4.80;;;5.60;99.90;;;;;;5011222;28;20360;-82
2022/12/28 00:21:53;;;;;;;13.02;4.75;;;6.10;99.90;;;;;;5010722;28;20068;-83
2022/12/28 00:24:23;;;;;;;10.65;5.00;;;5.90;99.90;;;;;;5010917;28;20477;-82
2022/12/28 00:26:50;;;;;;;18.70;5.10;;;5.20;99.90;;;;;;5009866;28;20064;-83
2022/12/28 00:29:16;;;;;;;11.88;4.78;;;5.80;99.90;;;;;;5010320;28;20436;-83
2022/12/28 00:31:44;;;;;;;13.82;5.07;;;5.30;99.90;;;;;;5010458;28;20080;-83
2022/12/28 00:34:10;;;;;;;10.48;5.05;;;5.60;99.90;;;;;;5027598;28;20134;-83
2022/12/28 00:36:35;;;;;;;17.30;5.20;;;5.20;99.90;;;;;;5009799;28;20440;-83
2022/12/28 00:39:01;;;;;;;14.40;5.38;;;5.30;99.90;;;;;;5010036;28;20060;-83
2022/12/28 00:41:27;;;;;;;15.88;5.45;;;5.30;99.90;;;;;;5010899;28;20049;-83
2022/12/28 00:43:52;;;;;;;17.73;5.25;;;5.60;99.90;;;;;;5007951;28;20084;-83
2022/12/28 00:46:18;;;;;;;10.32;5.65;;;5.50;99.90;;;;;;5010894;28;20099;-83
2022/12/28 00:48:44;;;;;;;18.27;6.47;;;5.30;99.90;;;;;;5010500;28;20061;-83
2022/12/28 00:51:13;;;;;;;14.55;5.57;;;5.70;99.90;;;;;;5010109;28;20496;-83
2022/12/28 00:53:39;;;;;;;16.98;5.65;;;5.50;99.90;;;;;;5010576;28;20132;-83
2022/12/28 00:56:08;;;;;;;17.38;5.32;;;5.30;99.90;;;;;;5009785;28;20140;-83
2022/12/28 00:58:34;;;;;;;17.80;5.60;;;5.10;99.90;;;;;;5009047;28;20102;-83
2022/12/28 01:01:01;;;;;;;14.85;5.82;;;5.30;99.90;;;;;;5009865;28;20486;-83
2022/12/28 01:03:26;;;;;;;17.60;5.75;;;5.60;99.90;;;;;;5010106;28;20081;-83
2022/12/28 01:05:52;;;;;;;16.88;5.78;;;6.10;99.90;;;;;;5008893;28;20088;-83
2022/12/28 01:08:19;;;;;;;12.02;5.50;;;5.10;99.90;;;;;;5010220;28;20080;-83
2022/12/28 01:10:44;;;;;;;13.90;5.45;;;5.30;99.90;;;;;;5010249;28;20072;-83
2022/12/28 01:13:10;;;;;;;17.00;6.20;;;6.10;99.90;;;;;;5008314;28;20497;-83
2022/12/28 01:15:37;;;;;;;16.15;6.45;;;5.60;99.90;;;;;;5010347;28;20052;-82
2022/12/28 01:18:03;;;;;;;11.73;6.18;;;5.40;99.90;;;;;;5009183;28;20056;-83
2022/12/28 01:20:29;;;;;;;14.00;5.82;;;5.20;99.90;;;;;;5009708;28;20053;-83
2022/12/28 01:22:55;;;;;;;15.77;6.90;;;5.30;99.90;;;;;;5009359;28;20037;-83
2022/12/28 01:25:20;;;;;;;17.13;6.20;;;5.20;99.90;;;;;;5008949;28;20045;-83
2022/12/28 01:27:46;;;;;;;14.60;6.20;;;5.30;99.90;;;;;;5008642;28;20052;-83
2022/12/28 01:30:13;;;;;;;18.20;6.38;;;6.00;99.90;;;;;;5009857;28;20091;-82
2022/12/28 01:32:38;;;;;;;19.80;7.18;;;5.30;99.90;;;;;;5009630;28;20041;-82
2022/12/28 01:35:04;;;;;;;13.95;6.25;;;5.80;99.90;;;;;;5009251;28;20555;-82
2022/12/28 01:37:30;;;;;;;15.60;6.18;;;5.20;99.90;;;;;;5009476;28;20191;-82
2022/12/28 01:39:56;;;;;;;13.10;5.63;;;5.80;99.90;;;;;;5008376;28;20057;-82
2022/12/28 01:42:22;;;;;;;13.65;6.35;;;5.80;99.90;;;;;;5008209;28;20081;-82
2022/12/28 01:44:49;;;;;;;18.05;6.45;;;6.10;99.90;;;;;;5009258;28;20051;-82
2022/12/28 01:47:20;;;;;;;17.13;6.00;;;6.00;99.90;;;;;;5008559;28;20052;-82
2022/12/28 01:49:53;;;;;;;12.48;5.97;;;6.10;99.90;;;;;;5009505;28;20048;-82
2022/12/28 01:52:28;;;;;;;17.83;6.32;;;5.20;99.90;;;;;;5009283;28;20041;-82
2022/12/28 01:54:59;;;;;;;15.52;6.00;;;5.80;99.90;;;;;;5008071;28;20053;-82
2022/12/28 01:57:30;;;;;;;14.88;6.43;;;5.40;99.90;;;;;;4992575;28;20056;-81
2022/12/28 02:00:01;;;;;;;13.65;6.85;;;5.30;99.90;;;;;;5008707;28;20091;-82
2022/12/28 02:02:28;;;;;;;13.95;6.60;;;5.40;99.90;;;;;;5009344;28;20053;-82
2022/12/28 02:04:54;;;;;;;15.27;6.63;;;5.30;99.90;;;;;;5008909;28;20084;-82
2022/12/28 02:07:46;;;;;;;14.20;7.00;;;5.40;99.90;;;;;;5009402;28;20106;-82
2022/12/28 02:10:13;;;;;;;18.35;7.28;;;5.30;99.90;;;;;;5009468;28;20556;-82
2022/12/28 02:12:39;;;;;;;14.15;6.05;;;5.20;99.90;;;;;;5009282;28;20046;-82
2022/12/28 02:15:06;;;;;;;17.67;7.13;;;5.30;99.90;;;;;;5008931;28;20137;-82
2022/12/28 02:17:33;;;;;;;14.60;6.55;;;5.40;99.90;;;;;;5009608;28;20211;-82
2022/12/28 02:19:59;;;;;;;14.15;6.32;;;5.40;99.90;;;;;;5009670;28;20055;-82
2022/12/28 02:22:50;;;;;;;14.45;6.75;;;5.50;99.90;;;;;;4992460;28;20401;-82
2022/12/28 02:25:44;;;;;;;15.15;6.80;;;6.00;99.90;;;;;;5009988;28;20103;-82
2022/12/28 02:28:29;;;;;;;14.95;7.25;;;5.40;99.90;;;;;;5009318;28;20106;-82
2022/12/28 02:31:10;;;;;;;15.07;6.50;;;5.40;99.90;;;;;;5008260;28;20448;-82
2022/12/28 02:33:45;;;;;;;17.83;7.78;;;5.30;99.90;;;;;;5009370;28;20107;-82
2022/12/28 02:36:18;;;;;;;14.50;7.28;;;6.10;99.90;;;;;;5008949;28;20065;-83
2022/12/28 02:38:52;;;;;;;20.87;8.80;;;5.50;99.90;;;;;;5024647;28;20520;-83
2022/12/28 02:41:22;;;;;;;16.15;7.68;;;5.30;99.90;;;;;;5008724;28;20132;-82
2022/12/28 02:43:48;;;;;;;22.17;7.72;;;5.80;99.90;;;;;;5007074;28;20045;-84
2022/12/28 02:52:22;;;;;;;14.15;7.10;;;5.40;99.90;;;;;;5008400;28;20190;-83
2022/12/28 02:58:16;;;;;;;13.20;6.85;;;5.50;99.90;;;;;;5010320;28;20493;-83
2022/12/28 03:01:08;;;;;;;13.48;7.25;;;6.10;99.90;;;;;;5012304;28;20216;-83
2022/12/28 03:03:48;;;;;;;10.07;7.07;;;5.50;99.90;;;;;;5012708;28;20073;-83
2022/12/28 03:09:36;;;;;;;15.25;6.97;;;5.30;99.90;;;;;;5012152;28;20059;-83
2022/12/28 03:12:09;;;;;;;10.88;7.20;;;5.50;99.90;;;;;;5010146;28;20127;-83
2022/12/28 03:14:42;;;;;;;11.40;7.38;;;5.50;99.90;;;;;;5012277;28;20037;-83
2022/12/28 03:31:16;;;;;;;15.85;7.60;;;5.60;99.90;;;;;;5012350;28;20135;-83
2022/12/28 03:33:47;;;;;;;11.43;6.80;;;5.80;99.90;;;;;;5011566;28;20497;-83
2022/12/28 03:36:32;;;;;;;14.85;8.05;;;6.00;99.90;;;;;;5011775;28;20064;-83
2022/12/28 03:39:19;;;;;;;12.65;7.32;;;5.60;99.90;;;;;;5010418;28;20400;-83
2022/12/28 03:44:38;;;;;;;13.18;8.50;;;5.80;99.90;;;;;;5011761;28;20512;-83
2022/12/28 03:47:09;;;;;;;12.95;7.43;;;6.00;99.90;;;;;;5010069;28;20205;-83
2022/12/28 03:49:36;;;;;;;12.65;8.15;;;6.50;99.90;;;;;;5011672;28;20048;-83
2022/12/28 03:52:02;;;;;;;14.18;8.57;;;6.70;99.90;;;;;;5010914;28;20507;-84
2022/12/28 03:54:28;;;;;;;17.23;8.85;;;6.00;99.90;;;;;;5011024;28;20145;-84
2022/12/28 03:56:54;;;;;;;13.50;8.10;;;6.40;99.90;;;;;;5010684;28;20164;-84
2022/12/28 03:59:19;;;;;;;13.30;8.10;;;6.00;99.90;;;;;;5011222;28;20049;-84
2022/12/28 04:01:45;;;;;;;14.45;8.00;;;6.00;99.90;;;;;;5009899;28;20056;-84
2022/12/28 04:04:11;;;;;;;10.57;7.75;;;6.70;99.90;;;;;;5010839;28;20048;-84
2022/12/28 04:06:37;;;;;;;13.85;8.05;;;6.10;99.90;;;;;;5011424;28;20045;-84
2022/12/28 04:09:04;;;;;;;8.85;6.03;;;6.20;99.90;;;;;;5028205;28;20049;-84
2022/12/28 04:11:29;;;;;;;11.35;7.68;;;6.20;99.90;;;;;;5011449;28;20092;-84
2022/12/28 04:13:57;;;;;;;12.80;7.00;;;6.20;99.90;;;;;;5009848;28;20465;-84
2022/12/28 04:16:23;;;;;;;9.85;6.57;;;6.30;99.90;;;;;;5010353;28;20049;-84
2022/12/28 04:18:49;;;;;;;12.88;6.88;;;6.30;99.90;;;;;;5010509;28;20429;-84
2022/12/28 04:21:14;;;;;;;10.88;6.75;;;6.40;99.90;;;;;;5010183;28;20041;-83
2022/12/28 04:23:41;;;;;;;12.07;7.30;;;7.00;99.90;;;;;;5011490;28;20140;-84
2022/12/28 04:26:10;;;;;;;14.02;7.25;;;6.40;99.90;;;;;;5010903;28;20100;-84
2022/12/28 04:28:37;;;;;;;11.07;7.05;;;6.30;99.90;;;;;;5009270;28;20100;-84
2022/12/28 04:31:04;;;;;;;9.73;6.80;;;6.40;99.90;;;;;;5010420;28;20054;-84
2022/12/28 04:33:33;;;;;;;11.07;5.70;;;6.40;99.90;;;;;;5010480;28;20459;-83
2022/12/28 04:36:08;;;;;;;9.23;6.40;;;6.40;99.90;;;;;;5026396;28;20084;-84
2022/12/28 04:38:34;;;;;;;11.85;6.47;;;6.30;99.90;;;;;;5010794;28;20057;-83
2022/12/28 04:41:01;;;;;;;11.85;5.95;;;6.90;99.90;;;;;;5010415;28;20137;-83
2022/12/28 04:43:29;;;;;;;10.18;7.13;;;6.30;99.90;;;;;;5009227;28;20053;-83
2022/12/28 04:45:59;;;;;;;9.77;5.60;;;7.40;99.90;;;;;;5010309;28;20485;-83
2022/12/28 04:48:26;;;;;;;8.80;5.70;;;5.80;99.90;;;;;;5010481;28;20041;-83
2022/12/28 04:50:53;;;;;;;9.73;6.85;;;6.50;99.90;;;;;;5009310;28;20401;-83
2022/12/28 04:53:19;;;;;;;10.23;6.63;;;6.40;99.90;;;;;;5010270;28;20049;-83
2022/12/28 04:55:45;;;;;;;10.02;6.80;;;6.50;99.90;;;;;;5010076;28;20033;-83
2022/12/28 04:58:11;;;;;;;8.73;6.32;;;6.40;99.90;;;;;;5008466;28;20048;-83
2022/12/28 05:00:37;;;;;;;9.15;6.50;;;6.90;99.90;;;;;;5010386;28;20126;-83
2022/12/28 05:03:03;;;;;;;9.48;6.38;;;6.50;99.90;;;;;;5009948;28;20073;-84
2022/12/28 05:05:29;;;;;;;10.35;6.80;;;6.60;99.90;;;;;;5009508;28;20480;-84
2022/12/28 05:07:58;;;;;;;9.07;6.97;;;6.50;99.90;;;;;;5009970;28;20053;-83
2022/12/28 05:10:24;;;;;;;11.02;6.80;;;6.60;99.90;;;;;;4992971;28;20079;-83
2022/12/28 05:12:49;;;;;;;8.70;7.07;;;6.60;99.90;;;;;;5009143;28;20103;-84
2022/12/28 05:15:15;;;;;;;10.75;7.68;;;6.60;99.90;;;;;;5010112;28;20038;-84
2022/12/28 05:17:41;;;;;;;9.63;7.50;;;6.70;99.90;;;;;;4993002;28;20049;-84
2022/12/28 05:20:07;;;;;;;12.00;8.07;;;6.70;99.90;;;;;;5009825;28;20045;-84
2022/12/28 05:22:33;;;;;;;12.15;8.05;;;6.70;99.90;;;;;;5009875;28;20396;-84
2022/12/28 05:24:58;;;;;;;12.25;9.27;;;7.40;99.90;;;;;;5008845;28;20124;-84
2022/12/28 05:27:24;;;;;;;11.73;8.82;;;6.60;99.90;;;;;;5009254;28;20111;-84
2022/12/28 05:29:50;;;;;;;12.00;8.88;;;6.70;99.90;;;;;;5009666;28;20119;-84
2022/12/28 05:32:15;;;;;;;11.80;9.43;;;6.70;99.90;;;;;;5025923;28;20053;-84
2022/12/28 05:34:41;;;;;;;13.18;9.52;;;6.80;99.90;;;;;;5009777;28;20397;-84
2022/12/28 05:37:07;;;;;;;13.48;9.60;;;6.80;99.90;;;;;;5009650;28;20087;-84
2022/12/28 05:39:32;;;;;;;12.02;8.73;;;6.70;99.90;;;;;;5008207;28;20057;-84
2022/12/28 05:41:59;;;;;;;13.52;10.13;;;7.70;99.90;;;;;;5008138;28;20069;-84
2022/12/28 05:44:26;;;;;;;14.15;11.18;;;6.90;99.90;;;;;;5010067;28;20064;-84
2022/12/28 05:46:52;;;;;;;15.18;10.95;;;6.80;99.90;;;;;;5007885;28;20045;-84
2022/12/28 05:49:18;;;;;;;12.98;9.93;;;6.90;99.90;;;;;;5009831;28;20037;-84
2022/12/28 05:51:43;;;;;;;13.82;10.38;;;7.00;99.90;;;;;;5009069;28;20099;-84
2022/12/28 05:54:09;;;;;;;15.95;10.70;;;7.10;99.90;;;;;;5009211;28;20155;-84
2022/12/28 05:56:35;;;;;;;15.63;11.60;;;7.10;99.90;;;;;;5010216;28;20409;-83
2022/12/28 05:59:04;;;;;;;18.45;11.70;;;6.90;99.90;;;;;;5007781;28;20048;-84
2022/12/28 06:01:32;;;;;;;19.27;12.65;;;7.00;99.90;;;;;;5009480;28;20136;-84
2022/12/28 06:04:02;;;;;;;17.50;12.38;;;7.00;99.90;;;;;;4992604;28;20385;-83
2022/12/28 06:06:28;;;;;;;20.25;13.23;;;7.30;99.90;;;;;;5009961;28;20980;-84
2022/12/28 06:08:54;;;;;;;18.27;11.98;;;7.10;99.90;;;;;;5007849;28;20069;-84
2022/12/28 06:11:22;;;;;;;20.77;14.10;;;7.20;99.90;;;;;;5009755;28;20064;-84
2022/12/28 06:13:48;;;;;;;19.65;13.15;;;7.30;99.90;;;;;;5007195;28;20480;-83
2022/12/28 06:16:18;;;;;;;17.77;13.23;;;7.40;99.90;;;;;;5010273;28;20060;-84
2022/12/28 06:18:45;;;;;;;22.75;14.77;;;7.30;99.90;;;;;;5008640;28;20055;-84
2022/12/28 06:21:14;;;;;;;20.75;14.90;;;7.40;99.90;;;;;;5008979;28;20404;-84
2022/12/28 06:23:41;;;;;;;22.02;14.48;;;7.30;99.90;;;;;;5009423;28;20072;-83
2022/12/28 06:26:07;;;;;;;25.27;15.75;;;7.50;99.90;;;;;;5008948;28;20469;-83
2022/12/28 06:28:36;;;;;;;18.85;13.20;;;7.50;99.90;;;;;;5010967;28;20159;-83
2022/12/28 06:31:04;;;;;;;20.48;14.00;;;7.40;99.90;;;;;;5012540;28;20136;-84
2022/12/28 06:33:30;;;;;;;18.52;13.23;;;7.40;99.90;;;;;;5013014;28;20103;-84
2022/12/28 06:35:56;;;;;;;19.75;13.43;;;7.60;99.90;;;;;;5011403;28;20049;-84
2022/12/28 06:38:21;;;;;;;16.25;12.25;;;7.50;99.90;;;;;;5012826;28;20080;-83
2022/12/28 06:40:47;;;;;;;15.38;12.18;;;7.40;99.90;;;;;;5012369;28;20132;-83
2022/12/28 06:43:13;;;;;;;13.02;9.75;;;7.60;99.90;;;;;;5011434;28;20057;-83
2022/12/28 06:45:38;;;;;;;14.48;11.30;;;7.50;99.90;;;;;;5012887;28;20084;-83
2022/12/28 06:48:04;;;;;;;13.52;11.30;;;7.50;99.90;;;;;;5011710;28;20053;-83
2022/12/28 06:50:30;;;;;;;12.55;10.02;;;7.60;99.90;;;;;;5012593;28;20504;-83
2022/12/28 06:52:56;;;;;;;13.65;10.65;;;7.40;99.90;;;;;;5012301;28;20592;-83
2022/12/28 06:55:21;;;;;;;13.27;9.70;;;7.50;99.90;;;;;;5012863;28;20128;-83
2022/12/28 06:57:47;;;;;;;13.23;10.18;;;7.50;99.90;;;;;;5010385;28;20468;-83
2022/12/28 07:00:13;;;;;;;12.80;10.18;;;7.60;99.90;;;;;;5012579;28;20077;-83
2022/12/28 07:02:39;;;;;;;13.77;10.23;;;7.70;99.90;;;;;;5012782;28;20135;-83
2022/12/28 07:05:04;;;;;;;13.05;10.23;;;7.70;99.90;;;;;;5011675;28;20392;-84
2022/12/28 07:07:30;;;;;;;14.80;11.05;;;7.70;99.90;;;;;;5011873;28;20076;-83
2022/12/28 07:09:56;;;;;;;13.30;10.30;;;7.50;99.90;;;;;;5011528;28;20038;-83
2022/12/28 07:12:22;;;;;;;13.77;11.05;;;7.60;99.90;;;;;;4994706;28;20056;-83
2022/12/28 07:14:47;;;;;;;14.15;11.20;;;7.60;99.90;;;;;;5011815;28;20041;-83
2022/12/28 07:17:13;;;;;;;14.40;10.65;;;7.60;99.90;;;;;;5011850;28;20049;-83
2022/12/28 07:19:39;;;;;;;17.55;11.43;;;7.80;99.90;;;;;;5012243;28;20611;-83
2022/12/28 07:22:04;;;;;;;11.50;9.40;;;8.10;99.90;;;;;;5011455;28;20479;-83
2022/12/28 07:24:30;;;;;;;13.57;10.30;;;7.60;99.90;;;;;;5011293;28;20041;-83
2022/12/28 07:26:56;;;;;;;18.02;10.43;;;7.70;99.90;;;;;;5023759;28;20132;-83
2022/12/28 07:29:21;;;;;;;11.88;9.43;;;7.70;99.90;;;;;;5048407;28;20053;-83
2022/12/28 07:31:47;;;;;;;14.25;10.23;;;8.10;99.90;;;;;;5040256;28;20060;-84
2022/12/28 07:34:14;;;;;;;20.75;11.05;;;7.90;99.90;;;;;;5048936;28;20080;-83
2022/12/28 07:36:41;;;;;;;19.05;12.05;;;7.90;99.90;;;;;;5018720;28;20049;-81
2022/12/28 07:39:07;;;;;;;15.07;11.35;;;8.50;99.90;;;;;;5029617;28;20396;-83
2022/12/28 07:41:34;;;;;;;16.65;11.55;;;8.00;99.90;;;;;;5012473;28;20134;-83
2022/12/28 07:44:01;;;;;;;18.92;12.02;;;7.90;99.90;;;;;;5027284;28;20048;-82
2022/12/28 07:46:29;;;;;;;21.52;12.15;;;8.00;99.90;;;;;;5025213;28;20102;-84
2022/12/28 07:48:56;;;;;;;22.15;11.60;;;7.90;99.90;;;;;;5002330;28;20041;-84
2022/12/28 07:51:25;;;;;;;16.73;11.65;;;7.90;99.90;;;;;;5000688;28;20028;-83
2022/12/28 07:53:53;;;;;;;20.52;12.82;;;8.00;99.90;;;;;;5002434;28;20042;-83
2022/12/28 07:56:20;;;;;;;19.90;12.40;;;8.00;99.90;;;;;;5011118;28;20132;-83
2022/12/28 07:58:50;;;;;;;18.50;11.85;;;8.70;99.90;;;;;;5017098;28;20493;-83
2022/12/28 08:01:18;;;;;;;22.45;12.05;;;8.10;99.90;;;;;;5002150;28;20050;-83
2022/12/28 08:03:44;;;;;;;22.08;12.70;;;8.20;99.90;;;;;;5017838;28;20052;-83
2022/12/28 08:06:13;;;;;;;18.67;12.23;;;8.10;99.90;;;;;;5002488;28;20414;-84
2022/12/28 08:08:41;;;;;;;21.52;12.25;;;8.70;99.90;;;;;;5004931;28;20068;-84
2022/12/28 08:11:12;;;;;;;19.75;12.93;;;8.40;99.90;;;;;;5022077;28;20207;-84
2022/12/28 08:13:40;;;;;;;18.50;11.55;;;8.30;99.90;;;;;;5029493;28;20045;-84
2022/12/28 08:16:07;;;;;;;17.15;10.95;;;8.30;99.90;;;;;;5008836;28;20052;-85
2022/12/28 08:18:33;;;;;;;17.77;11.77;;;8.40;99.90;;;;;;5016071;28;20041;-86
2022/12/28 08:21:01;;;;;;;19.33;12.65;;;8.50;99.90;;;;;;5002750;28;20501;-86
2022/12/28 08:23:27;;;;;;;19.00;12.13;;;8.40;99.90;;;;;;5008310;28;20119;-84
2022/12/28 08:25:53;;;;;;;18.27;12.95;;;8.50;99.90;;;;;;5043212;28;20544;-85
2022/12/28 08:28:18;;;;;;;17.35;12.43;;;8.30;99.90;;;;;;5017265;28;20183;-84
2022/12/28 08:30:44;;;;;;;20.65;14.30;;;8.50;99.90;;;;;;5008920;28;20046;-84
2022/12/28 08:33:10;;;;;;;22.90;13.38;;;8.30;99.90;;;;;;4991389;28;20068;-83
2022/12/28 08:35:35;;;;;;;21.35;13.70;;;8.50;99.90;;;;;;4990744;28;20136;-85
2022/12/28 08:38:04;;;;;;;18.67;12.73;;;8.40;99.90;;;;;;4986502;28;20462;-85
2022/12/28 08:40:29;;;;;;;22.17;13.25;;;8.50;99.90;;;;;;5004184;28;20063;-87
2022/12/28 08:42:57;;;;;;;15.18;12.60;;;8.60;99.90;;;;;;5001416;28;20041;-85
2022/12/28 08:45:24;;;;;;;21.15;12.93;;;8.50;99.90;;;;;;4994329;28;20433;-83
2022/12/28 08:47:49;;;;;;;19.98;12.52;;;8.50;99.90;;;;;;5009364;28;20060;-82
2022/12/28 08:50:15;;;;;;;17.58;12.80;;;8.30;99.90;;;;;;5009439;28;20124;-83
2022/12/28 08:52:41;;;;;;;16.35;11.75;;;8.50;99.90;;;;;;4994157;28;20053;-84
2022/12/28 08:55:07;;;;;;;14.85;11.73;;;8.80;99.90;;;;;;5008936;28;20115;-83
2022/12/28 08:57:33;;;;;;;13.68;11.13;;;8.40;99.90;;;;;;5008950;28;20438;-83
2022/12/28 08:59:58;;;;;;;17.90;10.77;;;8.80;99.90;;;;;;5009696;28;20087;-83
2022/12/28 09:02:24;;;;;;;16.25;10.32;;;8.60;99.90;;;;;;4993956;28;20077;-84
2022/12/28 09:04:50;;;;;;;13.45;9.93;;;8.60;99.90;;;;;;5008910;28;20046;-84
2022/12/28 09:07:18;;;;;;;10.35;8.88;;;8.60;99.90;;;;;;5009595;28;20041;-83
2022/12/28 09:09:43;;;;;;;18.10;16.38;;;8.50;99.90;;;;;;5009310;28;20061;-82
2022/12/28 09:12:09;;;;;;;10.32;8.38;;;8.40;99.90;;;;;;5009250;28;20095;-82
2022/12/28 09:14:35;;;;;;;11.02;7.22;;;8.50;99.90;;;;;;4993622;28;20496;-83
2022/12/28 09:17:01;;;;;;;12.57;6.93;;;8.50;99.90;;;;;;5008474;28;20323;-83
2022/12/28 09:19:26;;;;;;;11.48;7.22;;;8.30;99.90;;;;;;5008582;28;20052;-83
2022/12/28 09:21:54;;;;;;;9.05;6.53;;;8.40;99.90;;;;;;5009247;28;20049;-83
2022/12/28 09:24:21;;;;;;;8.05;6.13;;;8.30;99.90;;;;;;5009436;28;20085;-82
2022/12/28 09:26:49;;;;;;;8.45;5.72;;;8.50;99.90;;;;;;4992371;28;20087;-83
2022/12/28 09:29:15;;;;;;;9.13;6.05;;;8.40;99.90;;;;;;5009502;28;20041;-83
2022/12/28 09:31:41;;;;;;;8.85;5.43;;;8.50;99.90;;;;;;5000344;28;20046;-83
2022/12/28 09:34:11;;;;;;;7.88;5.28;;;8.50;99.90;;;;;;5007869;28;20366;-83
2022/12/28 09:36:41;;;;;;;8.48;5.60;;;8.30;99.90;;;;;;4974065;28;20045;-83
2022/12/28 09:39:12;;;;;;;8.48;6.28;;;8.60;99.90;;;;;;4988602;28;20054;-83
2022/12/28 09:41:57;;;;;;;9.82;6.72;;;8.60;99.90;;;;;;5009008;28;20144;-82
2022/12/28 09:44:37;;;;;;;8.50;6.68;;;8.50;99.90;;;;;;5023003;28;20050;-82
2022/12/28 09:47:06;;;;;;;10.10;7.45;;;8.50;99.90;;;;;;5008343;28;20072;-82
2022/12/28 09:49:45;;;;;;;10.30;7.63;;;8.40;99.90;;;;;;5009599;28;20512;-83
2022/12/28 09:52:14;;;;;;;8.95;6.68;;;8.50;99.90;;;;;;5024939;28;20045;-83
2022/12/28 09:54:40;;;;;;;8.15;6.07;;;8.70;99.90;;;;;;5025395;28;20107;-83
2022/12/28 09:57:13;;;;;;;8.48;6.10;;;8.60;99.90;;;;;;5024529;28;20472;-84
2022/12/28 09:59:39;;;;;;;8.70;6.30;;;9.20;99.90;;;;;;5008955;28;20045;-83
2022/12/28 10:02:24;;;;;;;8.40;6.22;;;8.60;99.90;;;;;;5026033;28;20432;-83
2022/12/28 10:04:51;;;;;;;8.48;6.25;;;8.70;99.90;;;;;;5013895;28;20071;-84
2022/12/28 10:07:17;;;;;;;10.15;6.43;;;8.50;99.90;;;;;;5029009;28;20055;-83
2022/12/28 10:09:44;;;;;;;8.18;6.05;;;8.80;99.90;;;;;;5029573;28;20381;-82
2022/12/28 10:12:16;;;;;;;8.27;5.70;;;8.80;99.90;;;;;;5012659;28;20409;-83
2022/12/28 10:14:45;;;;;;;9.40;6.77;;;8.80;99.90;;;;;;5029051;28;20518;-83
2022/12/28 10:17:13;;;;;;;9.00;6.53;;;8.70;99.90;;;;;;5029937;28;20636;-83
2022/12/28 10:19:39;;;;;;;10.07;7.35;;;8.60;99.90;;;;;;5012977;28;20227;-83
2022/12/28 10:22:10;;;;;;;12.50;8.00;;;8.80;99.90;;;;;;5012274;28;20055;-83
2022/12/28 10:24:38;;;;;;;11.27;7.97;;;8.70;99.90;;;;;;5013339;28;20080;-84
2022/12/28 10:27:05;;;;;;;15.05;10.02;;;8.60;99.90;;;;;;5011069;28;20148;-84
2022/12/28 10:29:33;;;;;;;11.88;7.63;;;8.80;99.90;;;;;;5030190;28;20041;-82
2022/12/28 10:32:00;;;;;;;11.10;7.15;;;8.60;99.90;;;;;;5009147;28;20050;-83
2022/12/28 10:34:27;;;;;;;9.80;6.25;;;8.80;99.90;;;;;;4992891;28;20084;-83
2022/12/28 10:36:54;;;;;;;11.55;7.22;;;8.70;99.90;;;;;;5014241;28;20079;-83
2022/12/28 10:39:26;;;;;;;8.82;6.05;;;8.80;99.90;;;;;;5029416;28;20045;-83
2022/12/28 10:41:53;;;;;;;8.18;5.95;;;8.70;99.90;;;;;;5013316;28;20037;-83
2022/12/28 10:44:22;;;;;;;11.57;5.95;;;8.60;99.90;;;;;;5013678;28;20132;-83
2022/12/28 10:46:54;;;;;;;9.98;6.00;;;8.80;99.90;;;;;;5031721;28;20103;-84
2022/12/28 10:49:20;;;;;;;11.18;6.55;;;8.90;99.90;;;;;;5015733;28;20064;-84
2022/12/28 10:52:00;;;;;;;11.90;6.40;;;8.70;99.90;;;;;;5048413;28;20598;-83
2022/12/28 10:54:25;;;;;;;11.15;6.78;;;8.70;99.90;;;;;;5015874;28;20725;-83
2022/12/28 10:56:51;;;;;;;9.70;6.30;;;9.20;99.90;;;;;;5014153;28;20496;-84
2022/12/28 10:59:24;;;;;;;9.88;6.07;;;8.70;99.90;;;;;;5015557;28;20053;-84
2022/12/28 11:01:50;;;;;;;8.68;5.78;;;8.80;99.90;;;;;;5015348;28;20515;-84
2022/12/28 11:04:18;;;;;;;11.43;6.95;;;8.60;99.90;;;;;;5030539;28;20045;-84
2022/12/28 11:06:53;;;;;;;9.00;6.15;;;8.90;99.90;;;;;;5014508;28;20068;-84
2022/12/28 11:09:26;;;;;;;8.93;6.20;;;8.80;99.90;;;;;;5028628;28;20045;-84
2022/12/28 11:11:55;;;;;;;9.32;5.72;;;8.90;99.90;;;;;;5030364;28;21050;-84
2022/12/28 11:14:30;;;;;;;8.30;5.32;;;8.60;99.90;;;;;;5015441;28;20045;-83
2022/12/28 11:16:57;;;;;;;7.57;4.90;;;8.80;99.90;;;;;;5011479;28;20128;-83
2022/12/28 11:19:24;;;;;;;6.65;4.50;;;8.60;99.90;;;;;;5032216;28;20075;-84
2022/12/28 11:21:51;;;;;;;8.93;4.50;;;8.70;99.90;;;;;;5014729;28;20048;-85
2022/12/28 11:24:18;;;;;;;5.70;4.13;;;8.70;99.90;;;;;;5015151;28;20044;-84
2022/12/28 11:26:48;;;;;;;8.25;4.25;;;8.70;99.90;;;;;;5030516;28;20047;-84
2022/12/28 11:29:16;;;;;;;5.18;3.53;;;8.90;99.90;;;;;;5015348;28;20064;-84
2022/12/28 11:31:49;;;;;;;5.85;3.67;;;8.90;99.90;;;;;;5021610;28;20037;-84
2022/12/28 11:34:19;;;;;;;7.88;4.18;;;9.00;99.90;;;;;;5012250;28;20092;-83
2022/12/28 11:36:45;;;;;;;8.82;4.50;;;9.00;99.90;;;;;;5011143;28;20100;-85
2022/12/28 11:39:32;;;;;;;4.97;3.80;;;8.90;99.90;;;;;;4995372;28;20033;-84
2022/12/28 11:41:59;;;;;;;6.82;4.30;;;8.80;99.90;;;;;;5027203;28;20092;-82
2022/12/28 11:44:28;;;;;;;7.55;3.88;;;8.80;99.90;;;;;;5010859;28;20437;-83
2022/12/28 11:47:14;;;;;;;6.07;4.25;;;8.90;99.90;;;;;;4994807;28;20222;-82
2022/12/28 11:49:40;;;;;;;4.72;3.50;;;8.80;99.90;;;;;;5011907;28;20531;-83
2022/12/28 11:52:15;;;;;;;5.22;3.22;;;8.80;99.90;;;;;;5010601;28;20041;-82
2022/12/28 11:54:56;;;;;;;4.88;3.25;;;9.10;99.90;;;;;;5011657;28;20046;-83
2022/12/28 11:57:37;;;;;;;6.20;3.80;;;8.90;99.90;;;;;;5010497;28;20132;-82
2022/12/28 12:00:15;;;;;;;6.00;4.20;;;8.80;99.90;;;;;;5027076;28;20049;-83
2022/12/28 12:02:48;;;;;;;6.93;4.22;;;9.00;99.90;;;;;;5011629;28;20049;-83
2022/12/28 12:05:47;;;;;;;5.30;4.00;;;8.80;99.90;;;;;;5040887;28;20080;-83
2022/12/28 12:08:13;;;;;;;5.47;3.90;;;9.00;99.90;;;;;;5030617;28;20128;-83
2022/12/28 12:10:40;;;;;;;6.45;4.00;;;8.40;99.90;;;;;;5031447;28;20063;-82
2022/12/28 12:13:24;;;;;;;7.32;4.72;;;9.00;99.90;;;;;;5042470;28;20056;-83
2022/12/28 12:15:55;;;;;;;6.70;4.40;;;8.90;99.90;;;;;;5027212;28;20038;-81
2022/12/28 12:18:24;;;;;;;5.43;3.60;;;8.80;99.90;;;;;;5044836;28;20458;-83
2022/12/28 12:21:02;;;;;;;6.05;4.60;;;8.90;99.90;;;;;;5043094;28;20053;-83
2022/12/28 12:23:45;;;;;;;6.85;4.15;;;8.90;99.90;;;;;;5043516;28;20129;-84
2022/12/28 12:26:19;;;;;;;9.20;4.63;;;9.00;99.90;;;;;;5043571;28;20037;-84
2022/12/28 12:28:49;;;;;;;6.88;5.07;;;8.80;99.90;;;;;;4992847;28;20099;-84
2022/12/28 12:31:25;;;;;;;7.93;4.53;;;8.90;99.90;;;;;;5042403;28;20099;-83
2022/12/28 12:33:58;;;;;;;7.53;5.43;;;9.00;99.90;;;;;;5009237;28;20112;-83
2022/12/28 12:36:34;;;;;;;7.40;4.57;;;8.90;99.90;;;;;;5011332;28;20187;-84
2022/12/28 12:39:05;;;;;;;5.03;3.88;;;8.80;99.90;;;;;;5010080;28;20401;-84
2022/12/28 12:41:48;;;;;;;5.07;4.05;;;8.90;99.90;;;;;;5009660;28;20501;-82
2022/12/28 12:44:33;;;;;;;5.17;3.53;;;8.70;99.90;;;;;;5010657;28;20049;-81
2022/12/28 12:47:02;;;;;;;5.53;3.80;;;8.90;99.90;;;;;;5009536;28;20061;-83
2022/12/28 12:49:51;;;;;;;5.25;3.40;;;8.90;99.90;;;;;;5010003;28;20527;-82
2022/12/28 12:52:25;;;;;;;6.07;3.20;;;9.00;99.90;;;;;;5010398;28;20489;-82
2022/12/28 12:55:08;;;;;;;4.65;2.85;;;8.90;99.90;;;;;;5009366;28;20045;-83
2022/12/28 12:58:01;;;;;;;7.97;2.83;;;9.00;99.90;;;;;;5010209;28;20054;-82
2022/12/28 13:00:41;;;;;;;3.75;2.38;;;9.00;99.90;;;;;;5010718;28;20077;-82
2022/12/28 13:03:28;;;;;;;11.23;3.63;;;8.80;99.90;;;;;;5009482;28;20049;-83
2022/12/28 13:05:56;;;;;;;4.55;2.65;;;8.90;99.90;;;;;;5009279;28;20057;-84
2022/12/28 13:08:31;;;;;;;5.13;2.65;;;8.90;99.90;;;;;;5010400;28;20409;-83
2022/12/28 13:10:56;;;;;;;3.92;2.55;;;8.80;99.90;;;;;;5008725;28;20053;-83
2022/12/28 13:13:29;;;;;;;4.57;2.90;;;8.80;99.90;;;;;;5009278;28;20591;-83
2022/12/28 13:15:59;;;;;;;6.93;3.00;;;8.70;99.90;;;;;;5009087;28;20042;-83
2022/12/28 13:18:25;;;;;;;4.15;2.97;;;8.70;99.90;;;;;;5009496;28;20478;-84
2022/12/28 13:20:52;;;;;;;4.20;2.90;;;8.90;99.90;;;;;;5009770;28;20048;-83
2022/12/28 13:23:20;;;;;;;4.57;3.35;;;8.70;99.90;;;;;;5009784;28;20340;-83
2022/12/28 13:25:50;;;;;;;5.47;3.17;;;8.90;99.90;;;;;;5009236;28;20073;-83